Time;durP1;ratioP1;P1;durP2;ratioP2;P2;SDS_P1;SDS_P2;PMS_P1;PMS_P2;Temp;Humidity;BMP_temperature;BMP_pressure;BME280_temperature;BME280_humidity;BME280_pressure;Samples;Min_cycle;Max_cycle;Signal;HPM_P1;HPM_P2
2021/12/09 00:00:45;;;;;;;26.90;13.32;;;;;;;;;;6094538;23;20042;-96
2021/12/09 00:03:40;;;;;;;27.33;13.27;;;;;;;;;;6120941;23;20042;-96
2021/12/09 00:06:07;;;;;;;29.42;13.68;;;;;;;;;;6119174;23;20022;-96
2021/12/09 00:08:34;;;;;;;30.85;13.93;;;;;;;;;;6112847;23;20050;-96
2021/12/09 00:11:02;;;;;;;25.17;14.20;;;;;;;;;;6114567;23;20023;-96
2021/12/09 00:13:32;;;;;;;33.33;14.98;;;;;;;;;;6115324;23;20011;-96
2021/12/09 00:15:58;;;;;;;23.23;13.07;;;;;;;;;;6091527;23;20022;-96
2021/12/09 00:18:24;;;;;;;24.30;13.88;;;;;;;;;;6092185;23;20026;-96
2021/12/09 00:20:56;;;;;;;27.70;14.40;;;;;;;;;;6115168;23;20478;-96
2021/12/09 00:23:24;;;;;;;30.50;14.32;;;;;;;;;;6090940;23;20022;-95
2021/12/09 00:25:51;;;;;;;26.25;13.82;;;;;;;;;;6115511;23;20040;-96
2021/12/09 00:28:18;;;;;;;29.88;15.00;;;;;;;;;;6093367;23;20022;-96
2021/12/09 00:30:58;;;;;;;26.88;15.57;;;;;;;;;;6119604;23;20054;-96
2021/12/09 00:33:46;;;;;;;28.48;14.85;;;;;;;;;;6117154;23;20105;-96
2021/12/09 00:36:26;;;;;;;28.85;14.98;;;;;;;;;;6118286;23;20057;-96
2021/12/09 00:38:56;;;;;;;35.95;16.20;;;;;;;;;;6119353;23;20018;-96
2021/12/09 00:41:23;;;;;;;28.35;14.63;;;;;;;;;;6120515;23;20058;-96
2021/12/09 00:44:32;;;;;;;29.00;15.77;;;;;;;;;;6121911;23;20067;-96
2021/12/09 00:47:08;;;;;;;35.08;16.90;;;;;;;;;;6113270;23;20022;-96
2021/12/09 00:49:45;;;;;;;29.17;17.17;;;;;;;;;;6120928;23;20022;-96
2021/12/09 00:52:16;;;;;;;32.40;16.58;;;;;;;;;;6096967;23;20050;-96
2021/12/09 00:54:50;;;;;;;32.50;15.38;;;;;;;;;;6121097;23;20062;-96
2021/12/09 00:57:20;;;;;;;25.17;13.80;;;;;;;;;;6095771;23;20018;-95
2021/12/09 00:59:50;;;;;;;28.83;13.95;;;;;;;;;;6096165;23;20064;-96
2021/12/09 01:02:24;;;;;;;27.50;14.70;;;;;;;;;;6118919;23;20010;-96
2021/12/09 01:04:54;;;;;;;28.17;15.50;;;;;;;;;;6118424;23;20029;-96
2021/12/09 01:07:36;;;;;;;29.33;15.20;;;;;;;;;;6117530;23;20026;-96
2021/12/09 01:10:04;;;;;;;27.05;15.27;;;;;;;;;;6095481;23;20057;-96
2021/12/09 01:12:33;;;;;;;31.90;15.50;;;;;;;;;;6116619;23;20451;-96
2021/12/09 01:14:59;;;;;;;31.83;16.45;;;;;;;;;;6095430;23;20002;-96
2021/12/09 01:17:31;;;;;;;36.80;17.08;;;;;;;;;;6115787;23;20019;-96
2021/12/09 01:20:11;;;;;;;32.50;17.10;;;;;;;;;;6099374;23;20025;-96
2021/12/09 01:23:03;;;;;;;41.90;18.48;;;;;;;;;;6123881;23;20022;-96
2021/12/09 01:25:44;;;;;;;34.08;18.65;;;;;;;;;;6098432;23;20029;-96
2021/12/09 01:28:22;;;;;;;30.02;16.95;;;;;;;;;;6094992;23;20014;-96
2021/12/09 01:31:03;;;;;;;31.17;17.48;;;;;;;;;;6118181;23;20018;-96
2021/12/09 01:33:31;;;;;;;31.38;17.05;;;;;;;;;;6118941;23;20053;-96
2021/12/09 01:35:58;;;;;;;34.63;17.67;;;;;;;;;;6123271;23;20025;-96
2021/12/09 01:38:36;;;;;;;36.55;17.67;;;;;;;;;;6123186;23;20022;-96
2021/12/09 01:41:03;;;;;;;35.40;17.70;;;;;;;;;;6126041;23;20017;-96
2021/12/09 01:43:52;;;;;;;28.38;16.30;;;;;;;;;;6148677;23;20145;-96
2021/12/09 01:46:46;;;;;;;30.73;16.98;;;;;;;;;;6136385;23;20070;-96
2021/12/09 01:49:31;;;;;;;32.20;16.63;;;;;;;;;;6007274;24;20016;-96
2021/12/09 01:52:08;;;;;;;28.13;16.52;;;;;;;;;;5962274;24;20004;-96
2021/12/09 01:55:14;;;;;;;33.25;17.85;;;;;;;;;;6007240;24;20027;-96
2021/12/09 01:58:03;;;;;;;29.52;16.35;;;;;;;;;;5935463;23;20552;-91
2021/12/09 02:00:51;;;;;;;35.28;17.77;;;;;;;;;;6006369;24;20024;-96
2021/12/09 02:03:19;;;;;;;41.00;17.85;;;;;;;;;;5959287;24;20023;-96
2021/12/09 02:05:58;;;;;;;33.22;17.42;;;;;;;;;;5982521;24;20516;-96
2021/12/09 02:08:30;;;;;;;36.70;17.15;;;;;;;;;;5980383;24;20058;-96
2021/12/09 02:11:17;;;;;;;33.90;17.67;;;;;;;;;;5982093;24;20052;-96
2021/12/09 02:13:56;;;;;;;38.00;16.63;;;;;;;;;;6004322;24;20027;-96
2021/12/09 02:16:41;;;;;;;35.53;19.20;;;;;;;;;;5948990;24;20025;-96
2021/12/09 02:19:21;;;;;;;32.40;17.80;;;;;;;;;;5926296;24;20012;-96
2021/12/09 02:21:52;;;;;;;37.83;17.90;;;;;;;;;;5904895;24;20025;-96
2021/12/09 02:24:30;;;;;;;34.95;18.42;;;;;;;;;;5951935;24;20072;-96
2021/12/09 02:27:09;;;;;;;41.83;18.67;;;;;;;;;;6033037;23;20019;-96
2021/12/09 02:30:06;;;;;;;30.85;17.02;;;;;;;;;;6061929;23;20041;-96
2021/12/09 02:32:44;;;;;;;35.37;18.43;;;;;;;;;;6056466;23;20081;-96
2021/12/09 02:35:11;;;;;;;36.60;18.70;;;;;;;;;;6012514;23;20033;-96
2021/12/09 02:37:37;;;;;;;37.40;19.63;;;;;;;;;;6014232;23;20093;-96
2021/12/09 02:40:10;;;;;;;36.60;20.27;;;;;;;;;;6058805;23;20071;-96
2021/12/09 02:42:40;;;;;;;35.28;19.42;;;;;;;;;;6062400;23;20020;-96
2021/12/09 02:45:21;;;;;;;33.72;19.60;;;;;;;;;;6060994;23;20023;-96
2021/12/09 02:47:47;;;;;;;40.58;21.23;;;;;;;;;;6057257;23;19999;-96
2021/12/09 02:50:14;;;;;;;37.70;20.25;;;;;;;;;;6077902;23;20028;-96
2021/12/09 02:52:41;;;;;;;36.10;20.90;;;;;;;;;;6088180;23;20042;-96
2021/12/09 02:55:07;;;;;;;39.45;19.63;;;;;;;;;;6095231;23;20022;-96
2021/12/09 02:57:36;;;;;;;38.50;19.63;;;;;;;;;;6095738;23;20018;-96
2021/12/09 03:00:10;;;;;;;36.50;20.83;;;;;;;;;;6094162;23;20022;-96
2021/12/09 03:02:36;;;;;;;45.15;20.92;;;;;;;;;;6092819;23;20019;-95
2021/12/09 03:05:07;;;;;;;39.45;21.15;;;;;;;;;;6115989;23;20041;-96
2021/12/09 03:07:36;;;;;;;38.03;21.13;;;;;;;;;;6090368;23;20018;-96
2021/12/09 03:10:20;;;;;;;43.83;21.73;;;;;;;;;;6114905;23;20022;-96
2021/12/09 03:13:00;;;;;;;39.00;20.77;;;;;;;;;;6117582;23;20025;-96
2021/12/09 03:15:33;;;;;;;40.05;21.08;;;;;;;;;;6115094;23;20077;-96
2021/12/09 03:17:59;;;;;;;35.78;20.40;;;;;;;;;;6116159;23;20478;-96
2021/12/09 03:20:27;;;;;;;38.35;20.00;;;;;;;;;;6093979;23;20018;-96
2021/12/09 03:22:56;;;;;;;36.60;19.85;;;;;;;;;;6095726;23;20019;-96
2021/12/09 03:25:29;;;;;;;38.75;20.98;;;;;;;;;;6119385;23;20018;-96
2021/12/09 03:28:05;;;;;;;38.17;21.00;;;;;;;;;;6095467;23;20022;-96
2021/12/09 03:30:31;;;;;;;43.85;22.75;;;;;;;;;;6093946;23;20083;-95
2021/12/09 03:33:02;;;;;;;42.45;21.58;;;;;;;;;;6036514;23;20106;-96
2021/12/09 03:35:29;;;;;;;42.28;21.88;;;;;;;;;;6012696;23;20055;-96
2021/12/09 03:37:55;;;;;;;38.13;20.90;;;;;;;;;;6036537;23;20011;-96
2021/12/09 03:40:21;;;;;;;41.50;21.08;;;;;;;;;;6014162;23;20059;-96
2021/12/09 03:42:51;;;;;;;40.50;21.17;;;;;;;;;;6037590;23;20510;-96
2021/12/09 03:45:17;;;;;;;38.78;21.08;;;;;;;;;;6037634;23;20023;-96
2021/12/09 03:47:47;;;;;;;36.20;20.77;;;;;;;;;;6037179;23;20024;-96
2021/12/09 03:50:17;;;;;;;47.30;21.73;;;;;;;;;;6010940;23;20019;-96
2021/12/09 03:52:44;;;;;;;36.83;21.13;;;;;;;;;;6027749;23;20020;-96
2021/12/09 03:55:12;;;;;;;43.78;21.27;;;;;;;;;;6032539;23;20023;-96
2021/12/09 03:57:41;;;;;;;41.05;20.67;;;;;;;;;;6011461;23;20026;-96
2021/12/09 04:00:09;;;;;;;45.40;23.17;;;;;;;;;;6036182;23;20023;-96
2021/12/09 04:02:55;;;;;;;44.33;21.80;;;;;;;;;;6060392;23;20071;-96
2021/12/09 04:05:26;;;;;;;40.45;20.60;;;;;;;;;;6034096;23;20023;-96
2021/12/09 04:07:53;;;;;;;37.47;20.85;;;;;;;;;;6033545;23;20032;-96
2021/12/09 04:10:20;;;;;;;42.72;21.63;;;;;;;;;;6035126;23;20023;-96
2021/12/09 04:12:47;;;;;;;39.10;20.25;;;;;;;;;;5990986;23;20290;-96
2021/12/09 04:15:16;;;;;;;45.40;21.58;;;;;;;;;;6059558;23;20019;-96
2021/12/09 04:17:42;;;;;;;46.60;23.38;;;;;;;;;;6000253;23;20012;-96
2021/12/09 04:20:12;;;;;;;48.60;23.42;;;;;;;;;;5975298;24;20048;-96
2021/12/09 04:22:48;;;;;;;49.72;23.27;;;;;;;;;;5957332;24;20028;-96
2021/12/09 04:25:24;;;;;;;48.50;25.08;;;;;;;;;;6002282;24;20020;-96
2021/12/09 04:27:55;;;;;;;52.33;25.75;;;;;;;;;;5979414;24;20068;-96
2021/12/09 04:30:26;;;;;;;49.78;24.45;;;;;;;;;;5981045;24;20028;-96
2021/12/09 04:33:11;;;;;;;50.33;24.63;;;;;;;;;;5948525;24;20148;-96
2021/12/09 04:35:40;;;;;;;44.60;23.17;;;;;;;;;;5923722;24;20029;-96
2021/12/09 04:38:11;;;;;;;45.88;23.80;;;;;;;;;;5945722;24;20025;-96
2021/12/09 04:40:40;;;;;;;40.40;22.45;;;;;;;;;;5946894;24;20021;-95
2021/12/09 04:43:13;;;;;;;45.75;23.98;;;;;;;;;;5987661;23;20507;-96
2021/12/09 04:45:44;;;;;;;44.33;22.80;;;;;;;;;;5962207;23;20023;-96
2021/12/09 04:48:14;;;;;;;43.67;23.48;;;;;;;;;;6007699;23;20019;-96
2021/12/09 04:50:44;;;;;;;41.08;23.08;;;;;;;;;;5961571;23;20008;-96
2021/12/09 04:53:11;;;;;;;47.67;24.63;;;;;;;;;;5984022;23;20020;-96
2021/12/09 04:55:38;;;;;;;52.97;24.98;;;;;;;;;;6041365;23;20019;-96
2021/12/09 04:58:07;;;;;;;54.33;25.83;;;;;;;;;;6055674;23;20120;-96
2021/12/09 05:00:37;;;;;;;50.67;26.38;;;;;;;;;;6050589;23;20018;-96
2021/12/09 05:03:09;;;;;;;54.30;26.73;;;;;;;;;;6054827;23;20019;-96
2021/12/09 05:05:42;;;;;;;49.72;26.65;;;;;;;;;;6113988;23;20018;-96
2021/12/09 05:08:10;;;;;;;53.80;27.93;;;;;;;;;;6110107;23;20022;-96
2021/12/09 05:10:51;;;;;;;57.38;28.00;;;;;;;;;;6118267;23;20029;-96
2021/12/09 05:13:18;;;;;;;52.42;26.88;;;;;;;;;;6120195;23;20065;-96
2021/12/09 05:15:51;;;;;;;55.13;27.23;;;;;;;;;;6145794;23;20013;-96
2021/12/09 05:18:23;;;;;;;49.20;26.13;;;;;;;;;;6121810;23;20021;-96
2021/12/09 05:20:50;;;;;;;56.40;28.08;;;;;;;;;;6119781;23;20018;-96
2021/12/09 05:23:20;;;;;;;55.05;27.27;;;;;;;;;;6147401;23;20078;-96
2021/12/09 05:25:48;;;;;;;53.70;27.58;;;;;;;;;;6115288;23;20421;-96
2021/12/09 05:28:18;;;;;;;57.65;27.75;;;;;;;;;;6115133;23;20030;-96
2021/12/09 05:33:45;;;;;;;59.83;28.02;;;;;;;;;;6125865;23;20009;-96
2021/12/09 05:36:29;;;;;;;53.40;27.55;;;;;;;;;;5981178;24;20040;-96
2021/12/09 05:38:57;;;;;;;59.60;28.65;;;;;;;;;;5974036;24;20026;-95
2021/12/09 05:41:33;;;;;;;55.17;27.17;;;;;;;;;;5992673;24;20461;-94
2021/12/09 05:44:02;;;;;;;61.53;28.17;;;;;;;;;;5979648;24;20160;-93
2021/12/09 05:46:28;;;;;;;59.53;28.15;;;;;;;;;;5981078;24;20024;-96
2021/12/09 05:48:55;;;;;;;63.63;27.13;;;;;;;;;;5981860;24;20342;-96
2021/12/09 05:51:24;;;;;;;58.40;26.63;;;;;;;;;;5996214;24;20043;-96
2021/12/09 05:53:51;;;;;;;56.55;26.05;;;;;;;;;;5983542;24;20027;-94
2021/12/09 05:56:17;;;;;;;58.17;25.48;;;;;;;;;;5980496;24;20016;-96
2021/12/09 05:58:43;;;;;;;56.25;25.77;;;;;;;;;;5959179;24;20020;-95
2021/12/09 06:01:09;;;;;;;50.75;25.42;;;;;;;;;;5979685;24;20461;-95
2021/12/09 06:03:35;;;;;;;53.65;27.00;;;;;;;;;;5958880;24;20020;-94
2021/12/09 06:06:01;;;;;;;53.92;25.50;;;;;;;;;;5977318;24;20062;-96
2021/12/09 06:08:27;;;;;;;57.88;26.83;;;;;;;;;;5954893;24;20024;-94
2021/12/09 06:10:53;;;;;;;66.32;29.52;;;;;;;;;;5977281;24;20020;-95
2021/12/09 06:13:21;;;;;;;55.72;27.08;;;;;;;;;;6014693;23;20459;-95
2021/12/09 06:15:48;;;;;;;56.05;26.60;;;;;;;;;;6095922;23;20026;-93
2021/12/09 06:18:14;;;;;;;58.78;26.75;;;;;;;;;;6095066;23;20019;-95
2021/12/09 06:20:40;;;;;;;57.05;26.13;;;;;;;;;;6092262;23;20050;-94
2021/12/09 06:23:06;;;;;;;58.08;26.98;;;;;;;;;;6068481;23;20062;-96
2021/12/09 06:25:32;;;;;;;59.00;26.63;;;;;;;;;;6092216;23;20022;-96
2021/12/09 06:27:58;;;;;;;60.88;26.63;;;;;;;;;;6091566;23;20525;-94
2021/12/09 06:30:25;;;;;;;58.55;27.48;;;;;;;;;;6068446;23;20026;-93
2021/12/09 06:32:51;;;;;;;52.45;26.67;;;;;;;;;;6068671;23;20018;-95
2021/12/09 06:35:18;;;;;;;58.63;26.13;;;;;;;;;;6068318;23;20021;-95
2021/12/09 06:37:46;;;;;;;56.10;26.00;;;;;;;;;;6068120;23;20026;-94
2021/12/09 06:40:14;;;;;;;55.90;25.35;;;;;;;;;;6068057;23;20379;-94
2021/12/09 06:42:41;;;;;;;51.10;25.17;;;;;;;;;;6091719;23;20030;-94
2021/12/09 06:45:07;;;;;;;56.17;26.30;;;;;;;;;;6068406;23;20015;-95
2021/12/09 06:47:33;;;;;;;51.85;25.67;;;;;;;;;;6068009;23;20022;-94
2021/12/09 06:49:59;;;;;;;62.40;27.35;;;;;;;;;;6091708;23;20018;-95
2021/12/09 06:52:25;;;;;;;54.63;26.65;;;;;;;;;;6067974;23;20037;-94
2021/12/09 06:54:51;;;;;;;61.22;28.23;;;;;;;;;;6067730;23;20028;-95
2021/12/09 06:57:17;;;;;;;64.65;26.52;;;;;;;;;;6092538;23;20019;-95
2021/12/09 06:59:43;;;;;;;54.08;25.75;;;;;;;;;;6070020;23;20025;-96
2021/12/09 07:02:09;;;;;;;54.60;25.85;;;;;;;;;;6068524;23;20471;-96
2021/12/09 07:04:35;;;;;;;55.75;25.88;;;;;;;;;;6069270;23;20474;-96
2021/12/09 07:07:01;;;;;;;55.13;25.48;;;;;;;;;;6095913;23;20029;-96
2021/12/09 07:09:29;;;;;;;55.03;25.67;;;;;;;;;;6098294;23;20062;-96
2021/12/09 07:11:55;;;;;;;50.75;23.77;;;;;;;;;;6072250;23;20077;-96
2021/12/09 07:14:21;;;;;;;48.53;23.98;;;;;;;;;;6096927;23;20019;-95
2021/12/09 07:16:47;;;;;;;51.78;23.30;;;;;;;;;;6071131;23;20028;-96
2021/12/09 07:19:16;;;;;;;40.83;22.55;;;;;;;;;;6072462;23;20030;-96
2021/12/09 07:21:42;;;;;;;41.35;22.13;;;;;;;;;;6075937;23;20101;-96
2021/12/09 07:24:10;;;;;;;44.38;22.40;;;;;;;;;;6076733;23;20059;-96
2021/12/09 07:26:36;;;;;;;48.85;23.23;;;;;;;;;;6080450;23;20022;-96
2021/12/09 07:29:03;;;;;;;48.67;22.98;;;;;;;;;;6077964;23;20056;-95
2021/12/09 07:31:30;;;;;;;44.00;20.85;;;;;;;;;;6120065;23;20002;-96
2021/12/09 07:34:01;;;;;;;40.08;21.92;;;;;;;;;;6117124;23;20002;-96
2021/12/09 07:36:48;;;;;;;51.85;21.83;;;;;;;;;;6140198;23;20029;-96
2021/12/09 07:39:15;;;;;;;45.03;22.15;;;;;;;;;;6119454;23;20026;-96
2021/12/09 07:41:47;;;;;;;49.92;22.27;;;;;;;;;;6138171;23;20022;-95
2021/12/09 07:44:17;;;;;;;46.55;22.42;;;;;;;;;;6058738;23;20024;-94
2021/12/09 07:46:48;;;;;;;41.90;21.60;;;;;;;;;;6113010;23;20024;-96
2021/12/09 07:49:14;;;;;;;51.58;22.75;;;;;;;;;;6087984;23;20022;-96
2021/12/09 07:51:40;;;;;;;63.72;23.73;;;;;;;;;;6104607;23;20484;-96
2021/12/09 07:54:06;;;;;;;74.95;25.50;;;;;;;;;;6113400;23;20049;-96
2021/12/09 07:56:32;;;;;;;55.63;23.73;;;;;;;;;;6065582;23;20018;-95
2021/12/09 07:58:59;;;;;;;51.13;22.75;;;;;;;;;;6109111;23;20093;-93
2021/12/09 08:01:59;;;;;;;48.08;23.02;;;;;;;;;;6116634;23;20026;-85
2021/12/09 08:10:59;;;;;;;48.13;21.80;;;;;;;;;;6132057;23;20029;-83
2021/12/09 08:13:25;;;;;;;55.22;23.50;;;;;;;;;;6128379;23;20006;-94
2021/12/09 08:15:53;;;;;;;47.45;23.85;;;;;;;;;;6091313;23;20033;-96
2021/12/09 08:20:46;;;;;;;50.60;23.38;;;;;;;;;;6097824;23;20018;-95
2021/12/09 08:23:12;;;;;;;50.92;23.33;;;;;;;;;;6098393;23;20095;-96
2021/12/09 08:25:38;;;;;;;53.15;22.85;;;;;;;;;;6100042;23;20037;-96
2021/12/09 08:28:04;;;;;;;54.75;23.17;;;;;;;;;;6105695;23;20022;-96
2021/12/09 08:30:30;;;;;;;54.00;24.27;;;;;;;;;;6105240;23;20081;-92
2021/12/09 08:32:56;;;;;;;45.92;22.40;;;;;;;;;;6098150;23;20022;-96
2021/12/09 08:35:22;;;;;;;48.08;23.95;;;;;;;;;;6097721;23;20073;-95
2021/12/09 08:37:51;;;;;;;51.85;25.05;;;;;;;;;;6097631;23;20018;-96
2021/12/09 08:40:17;;;;;;;53.97;24.80;;;;;;;;;;6097926;23;20018;-96
2021/12/09 08:42:44;;;;;;;47.25;23.85;;;;;;;;;;6107460;23;20018;-96
2021/12/09 08:45:10;;;;;;;58.60;24.60;;;;;;;;;;6126764;23;20033;-94
2021/12/09 08:47:38;;;;;;;49.83;24.63;;;;;;;;;;6122601;23;20012;-86
2021/12/09 08:50:05;;;;;;;58.58;25.75;;;;;;;;;;6123569;23;20458;-95
2021/12/09 08:52:31;;;;;;;51.13;25.02;;;;;;;;;;6096232;23;20085;-96
2021/12/09 08:54:57;;;;;;;51.80;24.10;;;;;;;;;;6101825;23;20454;-91
2021/12/09 08:57:24;;;;;;;50.35;23.80;;;;;;;;;;6127925;23;20006;-85
2021/12/09 08:59:50;;;;;;;51.15;23.67;;;;;;;;;;6099921;23;20025;-94
2021/12/09 09:02:16;;;;;;;43.97;23.33;;;;;;;;;;6101274;23;20525;-95
2021/12/09 09:04:42;;;;;;;48.08;23.00;;;;;;;;;;6097020;23;20482;-95
2021/12/09 09:07:09;;;;;;;43.80;22.13;;;;;;;;;;6101223;23;20069;-96
2021/12/09 09:09:37;;;;;;;44.90;22.33;;;;;;;;;;6119301;23;20081;-96
2021/12/09 09:12:04;;;;;;;38.90;22.55;;;;;;;;;;6098347;23;20018;-94
2021/12/09 09:14:30;;;;;;;39.60;20.20;;;;;;;;;;6104639;23;20026;-92
2021/12/09 09:16:57;;;;;;;41.38;20.85;;;;;;;;;;6096987;23;20018;-92
2021/12/09 09:19:23;;;;;;;38.72;18.75;;;;;;;;;;6097277;23;20462;-92
2021/12/09 09:21:49;;;;;;;34.40;19.35;;;;;;;;;;6101085;23;20018;-96
2021/12/09 09:24:15;;;;;;;40.17;20.30;;;;;;;;;;6120453;23;20033;-96
2021/12/09 09:26:42;;;;;;;40.53;18.80;;;;;;;;;;6124506;23;20045;-88
2021/12/09 09:29:08;;;;;;;32.67;18.42;;;;;;;;;;6112033;23;20466;-96
2021/12/09 09:31:34;;;;;;;41.80;19.25;;;;;;;;;;6101325;23;20021;-96
2021/12/09 09:34:02;;;;;;;43.17;19.02;;;;;;;;;;6103272;23;20538;-94
2021/12/09 09:36:29;;;;;;;40.60;19.00;;;;;;;;;;6104235;23;20022;-89
2021/12/09 09:39:00;;;;;;;38.40;18.70;;;;;;;;;;6073637;23;20092;-93
2021/12/09 09:41:32;;;;;;;42.08;18.02;;;;;;;;;;6098636;23;20152;-91
2021/12/09 09:44:10;;;;;;;34.00;17.75;;;;;;;;;;6096653;23;20033;-90
2021/12/09 09:46:36;;;;;;;29.35;17.23;;;;;;;;;;6098952;23;20049;-96
2021/12/09 09:49:02;;;;;;;29.90;16.75;;;;;;;;;;6102718;23;20399;-93
2021/12/09 09:51:29;;;;;;;35.45;17.38;;;;;;;;;;6097604;23;20026;-96
2021/12/09 09:53:56;;;;;;;30.60;16.63;;;;;;;;;;6096389;23;20014;-94
2021/12/09 09:56:24;;;;;;;32.92;16.35;;;;;;;;;;6107990;23;20018;-95
2021/12/09 09:58:55;;;;;;;30.13;16.38;;;;;;;;;;6096600;23;20517;-92
2021/12/09 10:01:22;;;;;;;26.45;14.95;;;;;;;;;;6097821;23;20025;-96
2021/12/09 10:03:51;;;;;;;29.55;15.07;;;;;;;;;;6097479;23;20014;-95
2021/12/09 10:06:18;;;;;;;27.80;14.63;;;;;;;;;;6098134;23;20092;-94
2021/12/09 10:08:44;;;;;;;26.55;14.82;;;;;;;;;;6109874;23;20089;-96
2021/12/09 10:14:35;;;;;;;30.83;13.48;;;;;;;;;;6131041;23;20068;-96
2021/12/09 10:17:11;;;;;;;26.55;14.07;;;;;;;;;;6112531;23;20021;-96
2021/12/09 10:19:39;;;;;;;29.45;13.57;;;;;;;;;;6099838;23;20049;-92
2021/12/09 10:22:07;;;;;;;22.45;12.98;;;;;;;;;;6096119;23;20107;-93
2021/12/09 10:24:33;;;;;;;23.30;13.15;;;;;;;;;;6096705;23;20085;-92
2021/12/09 10:26:59;;;;;;;25.60;13.48;;;;;;;;;;6096886;23;20056;-92
2021/12/09 10:29:37;;;;;;;26.40;12.73;;;;;;;;;;6096288;23;20025;-92
2021/12/09 10:32:05;;;;;;;24.65;12.20;;;;;;;;;;6096267;23;20014;-92
2021/12/09 10:34:42;;;;;;;25.33;12.95;;;;;;;;;;6096324;23;20022;-96
2021/12/09 10:37:09;;;;;;;24.35;13.15;;;;;;;;;;6096688;23;20032;-93
2021/12/09 10:39:35;;;;;;;22.50;12.98;;;;;;;;;;6096388;23;20022;-94
2021/12/09 10:42:05;;;;;;;25.45;12.30;;;;;;;;;;6108074;23;20089;-95
2021/12/09 10:44:34;;;;;;;21.83;12.93;;;;;;;;;;6097037;23;20350;-93
2021/12/09 10:47:16;;;;;;;27.30;13.18;;;;;;;;;;6096037;23;20358;-93
2021/12/09 10:49:47;;;;;;;24.15;13.13;;;;;;;;;;6095698;23;20025;-95
2021/12/09 10:52:24;;;;;;;33.00;15.40;;;;;;;;;;6096597;23;20517;-93
2021/12/09 10:54:50;;;;;;;30.77;14.43;;;;;;;;;;6099060;23;20029;-95
2021/12/09 10:57:24;;;;;;;26.73;15.10;;;;;;;;;;6097640;23;20098;-94
2021/12/09 10:59:50;;;;;;;30.15;16.02;;;;;;;;;;6104574;23;20012;-88
2021/12/09 11:02:16;;;;;;;37.05;14.95;;;;;;;;;;6118646;23;20041;-95
2021/12/09 11:04:56;;;;;;;34.80;14.57;;;;;;;;;;6096257;23;20060;-93
2021/12/09 11:07:28;;;;;;;34.00;14.35;;;;;;;;;;6096839;23;20122;-93
2021/12/09 11:10:12;;;;;;;32.30;14.80;;;;;;;;;;6096294;23;20018;-95
2021/12/09 11:12:38;;;;;;;28.02;14.80;;;;;;;;;;6096540;23;20100;-94
2021/12/09 11:15:05;;;;;;;38.75;15.95;;;;;;;;;;6095956;23;20058;-95
2021/12/09 11:17:38;;;;;;;31.05;14.57;;;;;;;;;;6096989;23;20025;-94
2021/12/09 11:20:05;;;;;;;32.38;16.42;;;;;;;;;;6095799;23;20029;-94
2021/12/09 11:22:34;;;;;;;30.15;14.70;;;;;;;;;;6096988;23;20093;-94
2021/12/09 11:25:03;;;;;;;28.42;15.27;;;;;;;;;;6096343;23;20018;-95
2021/12/09 11:27:30;;;;;;;31.00;15.48;;;;;;;;;;6121368;23;20017;-94
2021/12/09 11:30:08;;;;;;;30.52;15.13;;;;;;;;;;6095716;23;20068;-94
2021/12/09 11:32:52;;;;;;;34.10;14.75;;;;;;;;;;6096565;23;20018;-95
2021/12/09 11:35:24;;;;;;;28.63;14.07;;;;;;;;;;6095959;23;20482;-94
2021/12/09 11:40:48;;;;;;;31.15;16.00;;;;;;;;;;6096347;23;20052;-94
2021/12/09 11:43:19;;;;;;;29.50;15.07;;;;;;;;;;6096454;23;20459;-94
2021/12/09 11:45:46;;;;;;;29.65;15.55;;;;;;;;;;6095902;23;20466;-93
2021/12/09 11:48:13;;;;;;;35.08;17.05;;;;;;;;;;6095902;23;20411;-96
2021/12/09 11:50:43;;;;;;;49.30;19.20;;;;;;;;;;6096108;23;20025;-95
2021/12/09 11:53:11;;;;;;;33.67;17.38;;;;;;;;;;6096602;23;20029;-94
2021/12/09 11:55:42;;;;;;;34.53;17.35;;;;;;;;;;6096547;23;20025;-93
2021/12/09 11:58:31;;;;;;;34.00;17.75;;;;;;;;;;6096419;23;20013;-96
2021/12/09 12:15:19;;;;;;;31.40;16.83;;;;;;;;;;6095738;23;20022;-92
2021/12/09 12:18:17;;;;;;;34.25;17.60;;;;;;;;;;6091659;23;20025;-93
2021/12/09 12:20:54;;;;;;;40.08;17.25;;;;;;;;;;6096206;23;20022;-94
2021/12/09 12:24:38;;;;;;;40.90;17.67;;;;;;;;;;6096709;23;20270;-94
2021/12/09 12:29:51;;;;;;;40.53;18.45;;;;;;;;;;6097711;23;20033;-93
2021/12/09 12:32:56;;;;;;;36.65;17.73;;;;;;;;;;6102267;23;20073;-94
2021/12/09 12:37:59;;;;;;;38.80;18.65;;;;;;;;;;6097949;23;20068;-92
2021/12/09 12:40:51;;;;;;;43.65;19.70;;;;;;;;;;6097419;23;20026;-93
2021/12/09 12:43:54;;;;;;;43.58;19.02;;;;;;;;;;6097905;23;20022;-93
2021/12/09 12:46:41;;;;;;;45.65;18.45;;;;;;;;;;6097722;23;20017;-93
2021/12/09 12:49:32;;;;;;;47.60;20.20;;;;;;;;;;6097682;23;20026;-93
2021/12/09 12:52:08;;;;;;;35.33;18.10;;;;;;;;;;6097332;23;20018;-93
2021/12/09 12:54:42;;;;;;;48.58;21.25;;;;;;;;;;6097447;23;20021;-93
2021/12/09 12:57:16;;;;;;;39.13;20.00;;;;;;;;;;6096973;23;20018;-92
2021/12/09 12:59:44;;;;;;;40.30;19.35;;;;;;;;;;6096891;23;20017;-93
2021/12/09 13:02:17;;;;;;;44.75;20.27;;;;;;;;;;6098534;23;20101;-93
2021/12/09 13:10:43;;;;;;;41.55;21.15;;;;;;;;;;6010198;23;20360;-95
2021/12/09 13:13:30;;;;;;;43.13;20.13;;;;;;;;;;5993770;23;20026;-95
2021/12/09 13:16:07;;;;;;;50.72;22.08;;;;;;;;;;5992606;23;20030;-96
2021/12/09 13:18:42;;;;;;;47.50;22.20;;;;;;;;;;6022568;23;20023;-94
2021/12/09 13:21:26;;;;;;;49.70;22.15;;;;;;;;;;5987326;23;20042;-96
2021/12/09 13:24:11;;;;;;;45.22;22.38;;;;;;;;;;6010068;23;20538;-94
2021/12/09 13:26:57;;;;;;;45.50;22.52;;;;;;;;;;5987011;23;20098;-93
2021/12/09 13:29:39;;;;;;;46.08;21.77;;;;;;;;;;6014287;23;20008;-96
2021/12/09 13:32:48;;;;;;;45.70;21.42;;;;;;;;;;5990619;23;20019;-96
2021/12/09 13:35:09;;;;;;;47.67;20.77;;;;;;;;;;6020599;23;20027;-95
2021/12/09 13:38:40;;;;;;;49.25;21.00;;;;;;;;;;5990163;23;20019;-96
2021/12/09 13:46:35;;;;;;;44.60;20.00;;;;;;;;;;6103288;23;20022;-96
2021/12/09 13:49:19;;;;;;;42.67;21.38;;;;;;;;;;6111168;23;20041;-96
2021/12/09 13:56:58;;;;;;;43.15;20.52;;;;;;;;;;6103139;23;20029;-95
2021/12/09 13:59:25;;;;;;;37.40;20.70;;;;;;;;;;6096699;23;20586;-95
2021/12/09 14:01:52;;;;;;;43.45;20.90;;;;;;;;;;6099186;23;20100;-91
2021/12/09 14:04:23;;;;;;;42.63;20.65;;;;;;;;;;6101894;23;20014;-96
2021/12/09 14:07:25;;;;;;;39.90;20.13;;;;;;;;;;6133369;23;20025;-96
2021/12/09 14:10:03;;;;;;;48.03;20.92;;;;;;;;;;6069836;23;20073;-95
2021/12/09 14:12:36;;;;;;;47.35;20.38;;;;;;;;;;6098928;23;20018;-95
2021/12/09 14:15:17;;;;;;;37.80;19.83;;;;;;;;;;6118432;23;20017;-93
2021/12/09 14:17:45;;;;;;;47.40;20.88;;;;;;;;;;6099759;23;20387;-93
2021/12/09 14:20:21;;;;;;;44.55;20.95;;;;;;;;;;6096146;23;20022;-91
2021/12/09 14:22:50;;;;;;;40.97;21.63;;;;;;;;;;6097460;23;20022;-91
2021/12/09 14:25:27;;;;;;;43.38;21.23;;;;;;;;;;6096802;23;20018;-94
2021/12/09 14:27:54;;;;;;;41.90;20.08;;;;;;;;;;6096856;23;20029;-94
2021/12/09 14:30:21;;;;;;;41.28;21.48;;;;;;;;;;6102339;23;20505;-92
2021/12/09 14:32:49;;;;;;;48.85;21.13;;;;;;;;;;6097091;23;20025;-91
2021/12/09 14:35:21;;;;;;;41.70;21.75;;;;;;;;;;6096409;23;20402;-91
2021/12/09 14:37:49;;;;;;;45.15;20.70;;;;;;;;;;6096490;23;20517;-93
2021/12/09 14:40:19;;;;;;;46.42;20.65;;;;;;;;;;6096488;23;20371;-93
2021/12/09 14:42:56;;;;;;;39.35;19.40;;;;;;;;;;6095835;23;20474;-92
2021/12/09 14:45:27;;;;;;;41.45;19.92;;;;;;;;;;6097176;23;20350;-90
2021/12/09 14:47:54;;;;;;;38.08;20.17;;;;;;;;;;6099542;23;20058;-89
2021/12/09 14:50:20;;;;;;;47.80;20.67;;;;;;;;;;6097413;23;20025;-90
2021/12/09 14:52:46;;;;;;;40.67;19.17;;;;;;;;;;6099930;23;20018;-92
2021/12/09 14:55:17;;;;;;;42.25;20.65;;;;;;;;;;6096256;23;20470;-91
2021/12/09 14:57:52;;;;;;;42.28;20.67;;;;;;;;;;6096038;23;20069;-91
2021/12/09 15:00:42;;;;;;;45.53;20.92;;;;;;;;;;6098208;23;20350;-94
2021/12/09 15:03:10;;;;;;;41.13;20.90;;;;;;;;;;6060549;23;20014;-93
2021/12/09 15:05:55;;;;;;;42.97;20.88;;;;;;;;;;6096166;23;20083;-94
2021/12/09 15:08:22;;;;;;;46.97;21.05;;;;;;;;;;6096613;23;20025;-94
2021/12/09 15:10:52;;;;;;;44.88;21.60;;;;;;;;;;6095247;23;20022;-95
2021/12/09 15:13:18;;;;;;;42.67;20.08;;;;;;;;;;6096013;23;20473;-92
2021/12/09 15:15:44;;;;;;;44.50;20.67;;;;;;;;;;6094576;23;20426;-93
2021/12/09 15:18:11;;;;;;;51.72;26.92;;;;;;;;;;6096293;23;20053;-93
2021/12/09 15:20:47;;;;;;;41.58;20.27;;;;;;;;;;6096144;23;20026;-94
2021/12/09 15:23:30;;;;;;;64.28;34.83;;;;;;;;;;6095869;23;20485;-94
2021/12/09 15:25:56;;;;;;;51.20;27.27;;;;;;;;;;6094758;23;20017;-95
2021/12/09 15:28:23;;;;;;;47.50;21.38;;;;;;;;;;6096049;23;20513;-94
2021/12/09 15:30:52;;;;;;;42.38;22.40;;;;;;;;;;6094761;23;20018;-93
2021/12/09 15:33:21;;;;;;;47.90;23.02;;;;;;;;;;6096092;23;20064;-95
2021/12/09 15:35:59;;;;;;;52.28;23.63;;;;;;;;;;6095064;23;20021;-96
2021/12/09 15:38:25;;;;;;;48.55;22.85;;;;;;;;;;6095296;23;20484;-96